Time;durP1;ratioP1;P1;durP2;ratioP2;P2;SDS_P1;SDS_P2;PMS_P1;PMS_P2;Temp;Humidity;BMP_temperature;BMP_pressure;BME280_temperature;BME280_humidity;BME280_pressure;Samples;Min_cycle;Max_cycle;Signal;HPM_P1;HPM_P2
2022/10/30 00:00:27;;;;;;;0.73;0.73;;;;;;;13.69;100.00;100869.84;5078984;28;20210;-72
2022/10/30 00:02:54;;;;;;;1.30;1.30;;;;;;;13.50;100.00;100846.06;5041648;28;20203;-71
2022/10/30 00:05:21;;;;;;;0.90;0.90;;;;;;;13.60;100.00;100863.56;5075381;28;20214;-71
2022/10/30 00:07:48;;;;;;;0.75;0.75;;;;;;;13.51;100.00;100858.25;5073643;28;20198;-71
2022/10/30 00:10:17;;;;;;;0.80;0.80;;;;;;;13.70;100.00;100873.28;5073165;28;20267;-71
2022/10/30 00:12:44;;;;;;;1.20;1.20;;;;;;;13.65;100.00;100872.34;5073184;28;20641;-73
2022/10/30 00:15:11;;;;;;;0.90;0.90;;;;;;;13.68;100.00;100872.41;5075631;28;20207;-71
2022/10/30 00:17:38;;;;;;;0.80;0.80;;;;;;;13.69;100.00;100858.53;5078200;28;20209;-71
2022/10/30 00:20:06;;;;;;;0.80;0.80;;;;;;;13.79;100.00;100870.84;5076604;28;20215;-71
2022/10/30 00:22:34;;;;;;;0.70;0.70;;;;;;;13.70;100.00;100866.34;5024507;28;20215;-71
2022/10/30 00:25:01;;;;;;;0.90;0.90;;;;;;;13.54;100.00;100832.22;5077350;28;20674;-71
2022/10/30 00:27:29;;;;;;;0.80;0.80;;;;;;;13.72;100.00;100845.53;5075875;28;20217;-72
2022/10/30 00:29:56;;;;;;;0.90;0.90;;;;;;;13.70;100.00;100844.63;5074965;28;20206;-72
2022/10/30 00:32:23;;;;;;;0.80;0.80;;;;;;;13.74;100.00;100838.59;5073313;28;20221;-72
2022/10/30 00:34:49;;;;;;;0.80;0.80;;;;;;;13.81;100.00;100838.72;5077187;28;20210;-72
2022/10/30 00:37:16;;;;;;;0.90;0.90;;;;;;;13.79;100.00;100848.25;5075445;28;20255;-72
2022/10/30 00:39:43;;;;;;;0.80;0.80;;;;;;;13.90;100.00;100837.97;5074427;28;20229;-72
2022/10/30 00:42:13;;;;;;;0.88;0.88;;;;;;;13.97;100.00;100829.38;5075651;28;20210;-73
2022/10/30 00:44:47;;;;;;;0.88;0.88;;;;;;;13.98;100.00;100820.72;5077399;28;20194;-72
2022/10/30 00:47:19;;;;;;;1.25;1.25;;;;;;;13.95;100.00;100828.47;5075821;28;20201;-72
2022/10/30 00:49:53;;;;;;;0.90;0.90;;;;;;;14.06;100.00;100829.47;5078173;28;20203;-72
2022/10/30 00:52:23;;;;;;;0.90;0.90;;;;;;;13.83;100.00;100810.06;5074937;28;20237;-72
2022/10/30 00:54:51;;;;;;;0.85;0.85;;;;;;;13.95;100.00;100828.47;5076522;28;20214;-72
2022/10/30 00:57:21;;;;;;;0.90;0.90;;;;;;;14.10;100.00;100830.41;5074473;28;20210;-72
2022/10/30 00:59:50;;;;;;;0.80;0.80;;;;;;;13.81;100.00;100809.16;5074238;28;20191;-72
2022/10/30 01:02:18;;;;;;;0.80;0.80;;;;;;;13.76;100.00;100826.47;5076000;28;21361;-72
2022/10/30 01:04:46;;;;;;;0.90;0.90;;;;;;;13.57;100.00;100816.63;5076241;28;21619;-72
2022/10/30 01:07:17;;;;;;;0.70;0.70;;;;;;;13.50;100.00;100820.88;5077330;28;20207;-72
2022/10/30 01:09:45;;;;;;;0.90;0.90;;;;;;;13.23;100.00;100810.06;5076546;28;20626;-72
2022/10/30 01:12:12;;;;;;;0.80;0.80;;;;;;;13.19;100.00;100819.53;5077842;28;20676;-72
2022/10/30 01:14:43;;;;;;;0.93;0.93;;;;;;;13.18;100.00;100817.78;5080134;28;20198;-72
2022/10/30 01:17:46;;;;;;;0.90;0.90;;;;;;;13.15;100.00;100806.44;5057113;28;20199;-72
2022/10/30 01:20:29;;;;;;;0.80;0.80;;;;;;;13.07;100.00;100816.69;5077177;28;20209;-73
2022/10/30 01:23:06;;;;;;;0.93;0.93;;;;;;;12.97;100.00;100812.19;5075940;28;20640;-72
2022/10/30 01:25:47;;;;;;;0.93;0.93;;;;;;;13.02;100.00;100810.53;5076542;28;20201;-72
2022/10/30 01:28:40;;;;;;;0.82;0.82;;;;;;;13.09;100.00;100812.41;5074329;28;21428;-72
2022/10/30 01:31:22;;;;;;;0.90;0.90;;;;;;;13.03;100.00;100807.06;5025358;28;20272;-72
2022/10/30 01:34:03;;;;;;;0.90;0.90;;;;;;;12.92;100.00;100813.81;5072545;28;20202;-72
2022/10/30 01:36:36;;;;;;;1.00;1.00;;;;;;;12.90;100.00;100819.03;5057622;28;20210;-72
2022/10/30 01:39:08;;;;;;;0.93;0.93;;;;;;;12.67;100.00;100780.41;5075583;28;20191;-71
2022/10/30 01:41:35;;;;;;;0.90;0.90;;;;;;;12.65;100.00;100813.34;5075998;28;20194;-71
2022/10/30 01:44:06;;;;;;;1.10;1.10;;;;;;;12.65;100.00;100797.75;5078577;28;20613;-72
2022/10/30 01:46:44;;;;;;;0.80;0.80;;;;;;;12.73;100.00;100803.97;5077808;28;20990;-72
2022/10/30 01:49:30;;;;;;;0.90;0.90;;;;;;;12.69;100.00;100796.94;5074965;28;20206;-71
2022/10/30 01:52:04;;;;;;;0.90;0.90;;;;;;;12.50;100.00;100771.44;5076060;28;20644;-71
2022/10/30 01:54:40;;;;;;;0.80;0.80;;;;;;;12.61;100.00;100781.19;5021930;28;20203;-72
2022/10/30 01:57:15;;;;;;;0.80;0.80;;;;;;;12.54;100.00;100778.47;5073984;28;20226;-71
2022/10/30 01:59:47;;;;;;;1.38;1.33;;;;;;;12.66;100.00;100783.88;5072863;28;20658;-72
2022/10/30 02:02:14;;;;;;;1.15;1.15;;;;;;;12.11;100.00;100703.97;5074640;28;20199;-72
2022/10/30 02:04:43;;;;;;;0.77;0.77;;;;;;;12.61;100.00;100765.59;5075478;28;20226;-72
2022/10/30 02:07:11;;;;;;;0.90;0.90;;;;;;;12.69;100.00;100784.81;5073966;28;20602;-72
2022/10/30 02:09:38;;;;;;;1.27;1.27;;;;;;;12.66;100.00;100773.47;5074241;28;20777;-72
2022/10/30 02:12:06;;;;;;;1.00;1.00;;;;;;;12.68;100.00;100771.78;5039325;28;20905;-72
2022/10/30 02:14:37;;;;;;;0.80;0.80;;;;;;;12.78;100.00;100758.94;5079796;28;20203;-72
2022/10/30 02:17:06;;;;;;;0.80;0.80;;;;;;;12.80;100.00;100756.38;5054706;28;20199;-72
2022/10/30 02:19:33;;;;;;;0.80;0.80;;;;;;;12.78;100.00;100753.75;5077448;28;20260;-72
2022/10/30 02:22:01;;;;;;;0.80;0.80;;;;;;;12.93;100.00;100756.59;5075371;28;20567;-72
2022/10/30 02:24:29;;;;;;;0.80;0.80;;;;;;;12.99;100.00;100755.81;5071155;28;20195;-72
2022/10/30 02:26:56;;;;;;;0.95;0.95;;;;;;;12.97;100.00;100754.94;5070911;28;20549;-72
2022/10/30 02:29:22;;;;;;;0.88;0.88;;;;;;;13.01;100.00;100754.13;5071157;28;20606;-72
2022/10/30 02:31:49;;;;;;;0.70;0.70;;;;;;;13.04;100.00;100756.78;5070959;28;20230;-71
2022/10/30 02:34:16;;;;;;;0.90;0.90;;;;;;;13.09;100.00;100749.91;5074035;28;20199;-72
2022/10/30 02:36:43;;;;;;;0.80;0.80;;;;;;;12.50;100.00;100646.59;5072705;28;20198;-72
2022/10/30 02:39:11;;;;;;;0.90;0.90;;;;;;;13.22;100.00;100757.09;5075254;28;20205;-72
2022/10/30 02:41:38;;;;;;;1.00;1.00;;;;;;;13.02;100.00;100748.03;5075059;28;20190;-72
2022/10/30 02:44:06;;;;;;;1.13;1.13;;;;;;;13.17;100.00;100758.72;5076049;28;20198;-72
2022/10/30 02:46:33;;;;;;;0.80;0.80;;;;;;;13.03;100.00;100751.53;5074901;28;20299;-72
2022/10/30 02:49:00;;;;;;;0.90;0.90;;;;;;;12.95;100.00;100748.78;5073499;28;20230;-72
2022/10/30 02:51:26;;;;;;;1.05;1.05;;;;;;;12.92;100.00;100757.44;5074954;28;20230;-72
2022/10/30 02:53:53;;;;;;;0.90;0.90;;;;;;;12.84;100.00;100752.97;5072355;28;20195;-72
2022/10/30 02:56:21;;;;;;;0.73;0.73;;;;;;;12.77;100.00;100730.31;5074634;28;20206;-72
2022/10/30 02:58:48;;;;;;;1.00;1.00;;;;;;;12.78;100.00;100752.84;5075187;28;20194;-72
2022/10/30 03:01:16;;;;;;;1.00;1.00;;;;;;;12.82;100.00;100752.06;5073238;28;20218;-71
2022/10/30 03:03:43;;;;;;;0.90;0.90;;;;;;;12.67;100.00;100750.06;5073713;28;20209;-71
2022/10/30 03:06:12;;;;;;;1.02;1.02;;;;;;;12.77;100.00;100740.72;5069597;28;20318;-71
2022/10/30 03:08:39;;;;;;;0.80;0.80;;;;;;;12.55;100.00;100712.59;5073456;28;20205;-71
2022/10/30 03:11:08;;;;;;;0.93;0.93;;;;;;;12.71;100.00;100725.88;5073494;28;20198;-71
2022/10/30 03:13:39;;;;;;;0.98;0.98;;;;;;;12.73;100.00;100715.50;5072650;28;20690;-71
2022/10/30 03:16:08;;;;;;;0.90;0.90;;;;;;;12.76;100.00;100712.94;5075222;28;20226;-71
2022/10/30 03:18:35;;;;;;;0.80;0.80;;;;;;;12.35;100.00;100642.00;5069912;28;20187;-71
2022/10/30 03:21:06;;;;;;;0.90;0.90;;;;;;;12.99;100.00;100724.56;5075342;28;20702;-71
2022/10/30 03:23:32;;;;;;;1.13;1.13;;;;;;;12.97;100.00;100721.09;5074874;28;20887;-71
2022/10/30 03:25:59;;;;;;;0.80;0.80;;;;;;;13.10;100.00;100719.56;5036605;28;20201;-71
2022/10/30 03:28:28;;;;;;;0.80;0.80;;;;;;;13.16;100.00;100697.09;5076653;28;20206;-71
2022/10/30 03:31:00;;;;;;;0.90;0.90;;;;;;;13.33;100.00;100713.84;5058661;28;20623;-71
2022/10/30 03:33:27;;;;;;;0.90;0.90;;;;;;;13.26;100.00;100722.44;5075963;28;20218;-71
2022/10/30 03:35:54;;;;;;;0.80;0.80;;;;;;;13.24;100.00;100726.72;5077400;28;20213;-71
2022/10/30 03:38:21;;;;;;;0.90;0.90;;;;;;;13.12;100.00;100708.34;5042164;28;20202;-71
2022/10/30 03:40:48;;;;;;;1.00;1.00;;;;;;;13.03;100.00;100708.16;5076687;28;20206;-71
2022/10/30 03:43:14;;;;;;;0.90;0.90;;;;;;;13.01;100.00;100709.88;5072345;28;20705;-72
2022/10/30 03:45:47;;;;;;;1.00;1.00;;;;;;;13.18;100.00;100734.47;5080505;28;20221;-71
2022/10/30 03:48:16;;;;;;;0.90;0.90;;;;;;;13.09;100.00;100729.09;5078175;28;20281;-71
2022/10/30 03:50:43;;;;;;;0.90;0.90;;;;;;;12.97;100.00;100730.63;5079805;28;20745;-71
2022/10/30 03:53:10;;;;;;;0.90;0.90;;;;;;;12.94;100.00;100728.84;5076137;28;20650;-71
2022/10/30 03:55:37;;;;;;;0.80;0.80;;;;;;;12.91;100.00;100729.66;5077284;28;20210;-71
2022/10/30 03:58:04;;;;;;;1.05;1.05;;;;;;;12.97;100.00;100728.91;5076779;28;20198;-71
2022/10/30 04:00:30;;;;;;;0.77;0.77;;;;;;;12.75;100.00;100696.44;5044051;28;20197;-72
2022/10/30 04:02:57;;;;;;;0.80;0.80;;;;;;;12.81;100.00;100726.88;5026639;28;20195;-71
2022/10/30 04:05:27;;;;;;;1.08;1.08;;;;;;;12.89;100.00;100726.16;5078202;28;20597;-71
2022/10/30 04:07:58;;;;;;;0.95;0.95;;;;;;;12.95;100.00;100720.16;5076278;28;20230;-71
2022/10/30 04:10:25;;;;;;;1.00;1.00;;;;;;;12.80;100.00;100725.16;5077415;28;20191;-71
2022/10/30 04:12:53;;;;;;;0.90;0.90;;;;;;;12.66;100.00;100718.84;5075903;28;20654;-71
2022/10/30 04:15:20;;;;;;;0.90;0.90;;;;;;;12.45;100.00;100684.66;5073835;28;20206;-71
2022/10/30 04:17:50;;;;;;;0.90;0.90;;;;;;;12.73;100.00;100710.28;5085027;28;20208;-71
2022/10/30 04:20:17;;;;;;;0.98;0.98;;;;;;;12.57;100.00;100710.88;5076739;28;20287;-71
2022/10/30 04:22:46;;;;;;;0.90;0.90;;;;;;;12.64;100.00;100704.91;5076526;28;20645;-71
2022/10/30 04:25:13;;;;;;;0.90;0.90;;;;;;;12.54;100.00;100703.03;5074071;28;20191;-71
2022/10/30 04:27:41;;;;;;;0.88;0.88;;;;;;;12.35;100.00;100666.28;5058374;28;20210;-71
2022/10/30 04:30:09;;;;;;;0.90;0.90;;;;;;;12.56;100.00;100693.50;5075525;28;20210;-71
2022/10/30 04:32:36;;;;;;;0.80;0.80;;;;;;;12.51;100.00;100689.97;5080406;28;20230;-71
2022/10/30 04:35:04;;;;;;;0.90;0.90;;;;;;;12.64;100.00;100699.72;5076422;28;20218;-72
2022/10/30 04:37:31;;;;;;;0.90;0.90;;;;;;;12.55;100.00;100696.97;5076619;28;20618;-71
2022/10/30 04:39:59;;;;;;;0.90;0.90;;;;;;;12.68;100.00;100694.59;5075090;28;20657;-71
2022/10/30 04:42:25;;;;;;;0.82;0.82;;;;;;;12.13;100.00;100614.78;5075344;28;20205;-71
2022/10/30 04:44:52;;;;;;;0.90;0.90;;;;;;;12.68;100.00;100694.59;5071640;28;20488;-72
2022/10/30 04:47:19;;;;;;;0.90;0.90;;;;;;;12.75;100.00;100695.56;5080467;28;20207;-71
2022/10/30 04:49:46;;;;;;;0.93;0.93;;;;;;;12.60;100.00;100658.88;5083788;28;20209;-71
2022/10/30 04:52:12;;;;;;;1.00;1.00;;;;;;;12.83;100.00;100683.56;5075511;28;20233;-71
2022/10/30 04:54:39;;;;;;;2.75;2.55;;;;;;;13.03;100.00;100702.94;5072915;28;20205;-71
2022/10/30 04:57:07;;;;;;;1.00;1.00;;;;;;;13.15;100.00;100700.56;5074959;28;20205;-71
2022/10/30 04:59:34;;;;;;;1.00;1.00;;;;;;;13.01;100.00;100709.88;5057576;28;20210;-71
2022/10/30 05:02:01;;;;;;;0.90;0.90;;;;;;;13.08;100.00;100706.50;5075127;28;20202;-72
2022/10/30 05:04:28;;;;;;;0.90;0.90;;;;;;;13.11;100.00;100705.69;5039061;28;20210;-71
2022/10/30 05:06:54;;;;;;;0.90;0.90;;;;;;;13.10;100.00;100699.59;5075499;28;20198;-71
2022/10/30 05:09:21;;;;;;;1.00;1.00;;;;;;;13.09;100.00;100690.03;5074306;28;20194;-71
2022/10/30 05:11:48;;;;;;;1.10;1.10;;;;;;;13.16;100.00;100702.28;5074961;28;21601;-71
2022/10/30 05:14:16;;;;;;;1.00;1.00;;;;;;;13.31;100.00;100701.63;5076465;28;20226;-71
2022/10/30 05:16:43;;;;;;;0.93;0.93;;;;;;;13.21;100.00;100703.25;5080637;28;20194;-71
2022/10/30 05:19:10;;;;;;;0.80;0.80;;;;;;;13.32;100.00;100709.50;5074891;28;20213;-71
2022/10/30 05:21:36;;;;;;;0.70;0.70;;;;;;;13.41;100.00;100707.00;5074986;28;20198;-71
2022/10/30 05:24:03;;;;;;;0.80;0.80;;;;;;;13.58;100.00;100722.88;5076918;28;20207;-72
2022/10/30 05:26:30;;;;;;;0.93;0.93;;;;;;;13.62;100.00;100724.66;5077438;28;20634;-73
2022/10/30 05:28:57;;;;;;;1.17;1.17;;;;;;;13.56;100.00;100708.94;5077470;28;20358;-71
2022/10/30 05:31:25;;;;;;;0.80;0.80;;;;;;;13.81;100.00;100717.94;5075147;28;20222;-71
2022/10/30 05:33:52;;;;;;;1.00;1.00;;;;;;;13.71;100.00;100731.69;5075358;28;20694;-71
2022/10/30 05:36:19;;;;;;;0.70;0.70;;;;;;;13.64;100.00;100730.75;5072966;28;20199;-72
2022/10/30 05:38:45;;;;;;;0.70;0.70;;;;;;;13.72;100.00;100738.69;5073637;28;20194;-72
2022/10/30 05:41:13;;;;;;;0.80;0.80;;;;;;;13.98;100.00;100746.81;5074029;28;20210;-71
2022/10/30 05:43:39;;;;;;;0.80;0.80;;;;;;;13.96;100.00;100744.19;5072181;28;20198;-71
2022/10/30 05:46:06;;;;;;;0.70;0.70;;;;;;;14.00;100.00;100750.31;5076022;28;20217;-71
2022/10/30 05:48:34;;;;;;;0.90;0.90;;;;;;;14.27;100.00;100741.06;5071392;28;20194;-71
2022/10/30 05:51:01;;;;;;;0.80;0.80;;;;;;;14.26;100.00;100739.31;5065162;28;20235;-71
2022/10/30 05:53:28;;;;;;;0.80;0.80;;;;;;;14.33;100.00;100748.09;5086085;28;20662;-73
2022/10/30 05:55:56;;;;;;;1.17;1.17;;;;;;;14.56;100.00;100740.50;5090631;28;20189;-74
2022/10/30 05:58:23;;;;;;;1.00;1.00;;;;;;;14.55;100.00;100746.59;5091102;28;20685;-72
2022/10/30 06:00:50;;;;;;;3.83;1.77;;;;;;;14.54;100.00;100760.50;5075200;28;20198;-69
2022/10/30 06:03:17;;;;;;;0.90;0.90;;;;;;;14.32;100.00;100728.94;5091473;28;20662;-72
2022/10/30 06:05:47;;;;;;;0.80;0.80;;;;;;;14.69;100.00;100768.50;5078571;28;20203;-70
2022/10/30 06:08:15;;;;;;;0.80;0.80;;;;;;;14.66;100.00;100773.69;5074378;28;20195;-71
2022/10/30 06:10:42;;;;;;;1.08;1.08;;;;;;;14.69;100.00;100766.75;5063445;28;20718;-71
2022/10/30 06:13:10;;;;;;;1.20;1.20;;;;;;;14.68;100.00;100771.94;5065204;28;20241;-71
2022/10/30 06:15:37;;;;;;;0.90;0.90;;;;;;;14.61;100.00;100765.81;5088956;28;20576;-72
2022/10/30 06:18:04;;;;;;;0.90;0.90;;;;;;;14.60;100.00;100760.56;5076517;28;20213;-73
2022/10/30 06:20:31;;;;;;;0.90;0.90;;;;;;;14.85;100.00;100758.19;5035486;28;20206;-73
2022/10/30 06:23:01;;;;;;;0.95;0.95;;;;;;;14.75;100.00;100724.16;5059824;28;20567;-73
2022/10/30 06:25:29;;;;;;;0.90;0.90;;;;;;;14.98;100.00;100774.84;5057918;28;20218;-73
2022/10/30 06:27:57;;;;;;;1.05;1.05;;;;;;;14.85;100.00;100746.84;5076361;28;20201;-73
2022/10/30 06:30:25;;;;;;;0.95;0.95;;;;;;;15.18;100.00;100765.41;5069113;28;20208;-73
2022/10/30 06:32:57;;;;;;;1.00;1.00;;;;;;;15.27;100.00;100749.78;5036921;28;20223;-73
2022/10/30 06:35:23;;;;;;;0.80;0.80;;;;;;;15.26;100.00;100750.69;5061066;28;20740;-74
2022/10/30 06:37:52;;;;;;;0.80;0.80;;;;;;;15.39;100.00;100762.06;5070182;28;20203;-73
2022/10/30 06:40:21;;;;;;;1.17;1.17;;;;;;;15.53;100.00;100743.88;5060106;28;20207;-74
2022/10/30 06:42:49;;;;;;;0.98;0.98;;;;;;;15.86;100.00;100758.00;5069190;28;20207;-75
2022/10/30 06:45:17;;;;;;;0.95;0.95;;;;;;;15.90;100.00;100745.81;5070329;28;20723;-74
2022/10/30 06:47:44;;;;;;;1.00;1.00;;;;;;;15.99;100.00;100755.41;5070453;28;20215;-73
2022/10/30 06:50:13;;;;;;;0.90;0.90;;;;;;;16.19;100.00;100752.03;5071173;28;21376;-74
2022/10/30 06:52:40;;;;;;;0.80;0.80;;;;;;;16.27;100.00;100758.13;5070079;28;20214;-72
2022/10/30 06:55:07;;;;;;;1.23;1.23;;;;;;;16.34;100.00;100744.19;5069637;28;20201;-75
2022/10/30 06:57:35;;;;;;;0.98;0.98;;;;;;;16.61;100.00;100753.00;5068789;28;20214;-73
2022/10/30 07:00:02;;;;;;;1.00;1.00;;;;;;;16.57;100.00;100753.88;5054089;28;20214;-73
2022/10/30 07:02:29;;;;;;;0.90;0.90;;;;;;;16.59;100.00;100752.13;5056347;28;20211;-73
2022/10/30 07:04:56;;;;;;;0.93;0.93;;;;;;;16.66;100.00;100754.75;5058692;28;20270;-76
2022/10/30 07:07:23;;;;;;;1.00;1.00;;;;;;;16.40;100.00;100732.88;5068110;28;20206;-72
2022/10/30 07:09:50;;;;;;;1.30;1.30;;;;;;;16.70;100.00;100755.63;5062643;28;20230;-72
2022/10/30 07:12:16;;;;;;;0.90;0.90;;;;;;;16.74;100.00;100752.13;5068730;28;20194;-74
2022/10/30 07:14:45;;;;;;;1.00;1.00;;;;;;;16.79;100.00;100738.19;5059084;28;20261;-73
2022/10/30 07:17:11;;;;;;;1.00;1.00;;;;;;;16.85;100.00;100753.03;5063095;28;20221;-73
2022/10/30 07:19:38;;;;;;;0.93;0.93;;;;;;;16.91;100.00;100749.53;5056809;28;20211;-72
2022/10/30 07:22:05;;;;;;;1.15;1.13;;;;;;;16.94;100.00;100753.03;5062280;28;20690;-73
2022/10/30 07:24:32;;;;;;;1.00;1.00;;;;;;;16.91;100.00;100739.06;5066400;28;20226;-72
2022/10/30 07:26:58;;;;;;;1.15;1.15;;;;;;;17.00;100.00;100744.28;5054191;28;20207;-71
2022/10/30 07:29:25;;;;;;;0.80;0.80;;;;;;;17.10;100.00;100743.41;5061190;28;20207;-73
2022/10/30 07:31:53;;;;;;;1.35;1.30;;;;;;;17.41;100.00;100733.75;5058793;28;20202;-72
2022/10/30 07:34:20;;;;;;;1.00;1.00;;;;;;;17.48;99.55;100752.06;5079575;28;20226;-71
2022/10/30 07:36:47;;;;;;;0.93;0.93;;;;;;;17.59;98.74;100760.81;5082354;28;20206;-72
2022/10/30 07:39:13;;;;;;;0.85;0.85;;;;;;;17.16;97.81;100680.50;5074309;28;20198;-72
2022/10/30 07:41:40;;;;;;;0.90;0.90;;;;;;;17.72;100.00;100748.56;5073388;28;20264;-76
2022/10/30 07:44:07;;;;;;;0.85;0.85;;;;;;;17.99;100.00;100739.69;5073187;28;20207;-76
2022/10/30 07:46:34;;;;;;;0.70;0.70;;;;;;;18.16;100.00;100737.84;5073412;28;20272;-78
2022/10/30 07:49:02;;;;;;;1.00;1.00;;;;;;;18.51;100.00;100745.56;5083019;28;20217;-76
2022/10/30 07:51:29;;;;;;;1.23;1.23;;;;;;;18.56;100.00;100741.13;5072636;28;20238;-76
2022/10/30 07:53:56;;;;;;;3.22;2.17;;;;;;;18.59;93.76;100754.25;5072940;28;20231;-77
2022/10/30 07:56:22;;;;;;;0.85;0.85;;;;;;;18.47;89.57;100712.28;5073273;28;20202;-76
2022/10/30 07:58:49;;;;;;;1.00;1.00;;;;;;;18.78;95.39;100719.97;5072723;28;20210;-78
2022/10/30 08:01:16;;;;;;;0.93;0.93;;;;;;;18.91;86.40;100736.47;5085605;28;20190;-75
2022/10/30 08:03:43;;;;;;;1.10;1.10;;;;;;;19.09;86.24;100738.94;5076771;28;20199;-77
2022/10/30 08:06:11;;;;;;;0.90;0.90;;;;;;;19.14;83.10;100739.78;5072892;28;20195;-75
2022/10/30 08:08:37;;;;;;;0.90;0.90;;;;;;;19.27;88.29;100736.16;5027540;28;20214;-74
2022/10/30 08:11:04;;;;;;;1.45;1.35;;;;;;;19.42;82.06;100727.28;5035080;28;20210;-74
2022/10/30 08:13:31;;;;;;;0.90;0.90;;;;;;;19.55;82.81;100735.91;5072696;28;20230;-74
2022/10/30 08:15:58;;;;;;;1.02;1.02;;;;;;;19.45;77.96;100719.34;5071517;28;20205;-74
2022/10/30 08:18:25;;;;;;;0.85;0.85;;;;;;;19.62;79.31;100713.91;5073016;28;20275;-73
2022/10/30 08:20:52;;;;;;;1.02;1.02;;;;;;;19.57;78.54;100708.69;5070945;28;20209;-73
2022/10/30 08:23:20;;;;;;;1.60;1.50;;;;;;;19.78;78.15;100710.19;5071462;28;20191;-74
2022/10/30 08:25:47;;;;;;;1.23;1.13;;;;;;;19.57;76.69;100689.41;5072123;28;20578;-75
2022/10/30 08:28:14;;;;;;;0.98;0.98;;;;;;;19.80;76.45;100711.03;5071611;28;20198;-74
2022/10/30 08:30:41;;;;;;;1.30;1.00;;;;;;;20.00;81.50;100697.63;5069776;28;20283;-73
2022/10/30 08:33:12;;;;;;;0.85;0.85;;;;;;;19.87;75.19;100675.84;5064333;28;20203;-74
2022/10/30 08:35:39;;;;;;;1.00;1.00;;;;;;;19.35;79.73;100607.22;5071774;28;20651;-77
2022/10/30 08:38:06;;;;;;;0.90;0.90;;;;;;;20.04;76.23;100679.13;5071877;28;20198;-75
2022/10/30 08:40:34;;;;;;;1.27;1.23;;;;;;;20.17;73.90;100692.97;5036032;28;20199;-75
2022/10/30 08:43:01;;;;;;;1.08;1.05;;;;;;;20.20;76.00;100691.19;5059928;28;20219;-74
2022/10/30 08:45:27;;;;;;;1.95;1.85;;;;;;;20.12;72.95;100703.56;5046926;28;20651;-79
2022/10/30 08:47:58;;;;;;;0.90;0.90;;;;;;;20.20;72.05;100678.00;5072611;28;21001;-77
2022/10/30 08:50:25;;;;;;;0.80;0.80;;;;;;;20.30;71.74;100696.38;5054894;28;20647;-79
2022/10/30 08:52:52;;;;;;;0.90;0.90;;;;;;;20.22;72.56;100686.78;5061780;28;20205;-77
2022/10/30 08:55:19;;;;;;;0.80;0.80;;;;;;;20.41;71.88;100700.56;5058598;28;20234;-77
2022/10/30 08:57:47;;;;;;;0.90;0.90;;;;;;;20.61;71.49;100695.00;5054973;28;20807;-75
2022/10/30 09:00:14;;;;;;;1.00;1.00;;;;;;;20.54;70.70;100702.13;5061167;28;20275;-75
2022/10/30 09:02:41;;;;;;;1.05;1.05;;;;;;;20.75;74.97;100685.97;5062298;28;20199;-78
2022/10/30 09:05:08;;;;;;;1.00;1.00;;;;;;;20.72;70.55;100695.69;5055954;28;20211;-77
2022/10/30 09:07:35;;;;;;;2.58;1.45;;;;;;;20.76;72.39;100681.56;5068995;28;20698;-77
2022/10/30 09:10:03;;;;;;;1.10;1.10;;;;;;;20.97;69.26;100685.59;5063820;28;20203;-77
2022/10/30 09:12:29;;;;;;;2.47;1.38;;;;;;;20.78;68.50;100685.03;5063066;28;20194;-76
2022/10/30 09:14:58;;;;;;;1.40;1.30;;;;;;;20.97;67.43;100681.19;5022619;28;20230;-77
2022/10/30 09:17:24;;;;;;;1.00;1.00;;;;;;;20.94;70.12;100670.66;5072378;28;20207;-76
2022/10/30 09:19:51;;;;;;;0.90;0.90;;;;;;;21.07;70.96;100674.84;5067524;28;20207;-76
2022/10/30 09:22:18;;;;;;;1.00;1.00;;;;;;;20.97;66.37;100653.94;5069940;28;20210;-79
2022/10/30 09:24:45;;;;;;;1.17;1.17;;;;;;;21.17;66.35;100641.28;5067881;28;20218;-77
2022/10/30 09:27:12;;;;;;;1.15;1.15;;;;;;;21.43;77.17;100628.44;5061181;28;20265;-78
2022/10/30 09:29:38;;;;;;;1.00;1.00;;;;;;;21.64;65.22;100650.88;5048400;28;20211;-73
2022/10/30 09:32:08;;;;;;;0.80;0.80;;;;;;;21.79;63.65;100625.94;5054807;28;20199;-73
2022/10/30 09:34:36;;;;;;;1.00;1.00;;;;;;;21.35;62.58;100579.38;5031498;28;20280;-73
2022/10/30 09:37:03;;;;;;;1.10;1.10;;;;;;;21.87;61.51;100647.75;5056960;28;20580;-74
2022/10/30 09:39:29;;;;;;;1.08;1.08;;;;;;;21.89;62.09;100654.72;5070908;28;20210;-73
2022/10/30 09:42:17;;;;;;;1.05;1.05;;;;;;;22.02;60.81;100650.94;5071049;28;20214;-73
2022/10/30 09:44:55;;;;;;;0.90;0.90;;;;;;;21.91;60.50;100620.38;5074970;28;20213;-73
2022/10/30 09:47:33;;;;;;;1.02;1.02;;;;;;;22.11;59.72;100645.47;5078876;28;20198;-74
2022/10/30 09:50:13;;;;;;;1.02;1.02;;;;;;;22.18;59.78;100633.84;5070545;28;20234;-73
2022/10/30 09:52:47;;;;;;;1.10;1.10;;;;;;;22.34;59.51;100634.34;5055472;28;20214;-73
2022/10/30 09:55:27;;;;;;;1.20;1.20;;;;;;;22.40;58.71;100622.75;5057946;28;20219;-76
2022/10/30 09:58:04;;;;;;;1.20;1.20;;;;;;;22.30;58.30;100614.16;5071087;28;20206;-73
2022/10/30 10:00:36;;;;;;;1.05;1.05;;;;;;;22.39;58.31;100623.66;5080693;28;20202;-74
2022/10/30 10:03:20;;;;;;;1.23;1.23;;;;;;;22.44;58.09;100616.50;5068945;28;20291;-73
2022/10/30 10:05:52;;;;;;;1.08;1.08;;;;;;;22.30;57.74;100586.88;5070636;28;20226;-74
2022/10/30 10:08:22;;;;;;;1.10;1.10;;;;;;;22.53;57.70;100608.31;5070039;28;20214;-73
2022/10/30 10:10:54;;;;;;;1.00;1.00;;;;;;;22.54;57.01;100612.72;5070095;28;20203;-73
2022/10/30 10:13:30;;;;;;;0.95;0.95;;;;;;;22.61;56.63;100606.38;5070037;28;20214;-73
2022/10/30 10:16:03;;;;;;;1.05;1.05;;;;;;;22.80;57.58;100604.97;5084898;28;20213;-74
2022/10/30 10:18:35;;;;;;;1.05;1.05;;;;;;;22.50;59.86;100600.47;5070178;28;20238;-73
2022/10/30 10:21:09;;;;;;;1.10;1.10;;;;;;;22.72;57.31;100609.63;5071047;28;20210;-75
2022/10/30 10:23:43;;;;;;;0.90;0.90;;;;;;;22.75;57.79;100579.59;5060602;28;20206;-74
2022/10/30 10:26:18;;;;;;;1.02;1.02;;;;;;;22.84;57.08;100590.78;5056873;28;20581;-72
2022/10/30 10:28:55;;;;;;;0.98;0.98;;;;;;;23.06;55.35;100599.88;5069359;28;20217;-74
2022/10/30 10:31:36;;;;;;;1.13;1.13;;;;;;;23.09;54.31;100599.78;5049897;28;20218;-74
2022/10/30 10:34:29;;;;;;;1.23;1.23;;;;;;;23.10;54.14;100572.41;5069364;28;20233;-74
2022/10/30 10:37:06;;;;;;;1.20;1.20;;;;;;;23.37;53.28;100578.69;5080976;28;20205;-74
2022/10/30 10:39:42;;;;;;;0.90;0.90;;;;;;;23.50;52.99;100571.28;5077636;28;20251;-75
2022/10/30 10:42:23;;;;;;;1.00;1.00;;;;;;;23.39;54.17;100568.06;5073728;28;20260;-73
2022/10/30 10:45:02;;;;;;;2.70;1.70;;;;;;;23.37;54.51;100575.16;5078357;28;20206;-71
2022/10/30 10:47:54;;;;;;;1.00;1.00;;;;;;;23.47;53.43;100566.94;5071772;28;20206;-72
2022/10/30 10:50:25;;;;;;;1.13;1.13;;;;;;;22.97;54.26;100544.56;5056068;28;20250;-72
2022/10/30 10:52:56;;;;;;;1.00;1.00;;;;;;;23.13;54.80;100566.16;5081071;28;20210;-73
2022/10/30 10:55:27;;;;;;;1.00;1.00;;;;;;;22.95;55.12;100556.97;5069400;28;20253;-72
2022/10/30 10:58:03;;;;;;;1.45;1.35;;;;;;;23.04;55.15;100559.38;5069504;28;20205;-72
2022/10/30 11:00:31;;;;;;;1.17;1.17;;;;;;;23.06;55.42;100552.25;5074786;28;20205;-72
2022/10/30 11:03:03;;;;;;;0.95;0.95;;;;;;;23.01;55.25;100553.31;5070133;28;20260;-72
2022/10/30 11:05:36;;;;;;;1.00;1.00;;;;;;;23.23;54.89;100544.69;5069459;28;20207;-72
2022/10/30 11:08:12;;;;;;;0.90;0.90;;;;;;;23.38;54.30;100534.56;5069496;28;20281;-71
2022/10/30 11:10:39;;;;;;;1.17;1.17;;;;;;;23.43;54.16;100535.31;5073982;28;20282;-74
2022/10/30 11:13:05;;;;;;;0.90;0.90;;;;;;;23.52;53.40;100535.03;5071060;28;20217;-73
2022/10/30 11:15:45;;;;;;;0.95;0.95;;;;;;;23.70;53.04;100526.53;5068847;28;20234;-73
2022/10/30 11:18:14;;;;;;;0.90;0.90;;;;;;;23.46;52.73;100512.28;5069948;28;20823;-73
2022/10/30 11:20:51;;;;;;;0.93;0.93;;;;;;;23.57;52.49;100504.00;5069414;28;20679;-72
2022/10/30 11:23:38;;;;;;;0.85;0.85;;;;;;;23.80;52.01;100506.75;5064533;28;20207;-73
2022/10/30 11:26:25;;;;;;;1.35;1.35;;;;;;;23.66;52.21;100498.41;5067600;28;20678;-71
2022/10/30 11:28:54;;;;;;;1.00;1.00;;;;;;;23.92;51.78;100510.81;5023475;28;20199;-73